Wildrose, North Dakota
Current Conditions -  °F | °C
As of 9:55 PM on Saturday 24 Jan 2015 (Local Time) from KD60 Reporting Station
Overcast Overcast  
Wind Chill: -4°   Ceiling: 2400
Heat Index:   Visibility: 10mi
Dew Point:   Wind: 20mph
Humidity: 100%   Direction: 310°NW
Pressure: 29.85"   Gusts: 29mph
Location:  48.63°N, 103.18°W
Report Text: KD60 250355Z AUTO 31017G25KT 10SM BKN024 OVC045 02/02 A2985 RMK AO2
Loading
Personal Weather Stations






























Interactive Weather Map New forecast layout! Learn more

10-Day Weather Forecast

Advertisements
Track Severe Weather on mobile